Mount Shasta, CA

12:58 AM PDT on July 06, 2015 (GMT -0700)
Hammond Ranch | | Change Station
CLOSE
Current Station
Personal Weather Station
Location: Weed, CA
Elevation: 3825 ft
Nearby Weather Stations

Elev 3825 ft 41.38 °N, 122.42 °W | Updated 35 seconds ago

Partly Cloudy
Partly Cloudy
61.7 °F
Feels Like 61.7 °F
N
0.0
Wind Variable Wind from South
Gusts 0.0 mph

Today
High -- | Low -- °F
--% Chance of Precip.
Yesterday
High -- | Low -- °F
Precip. -- in
5:42 AM 8:45 PM
Waning Gibbous, 78% visible
Pressure 30.02 in
Visibility 10.0 miles
Clouds Clear
Dew Point 54 °F
Humidity 76%
Rainfall 0.00 in
Snow Depth Not available.
UV 0.0 out of 12
Pollen 5.20 out of 12
Air Quality Not available.
Flu Activity Not available.
METAR KMHS 060756Z AUTO 00000KT 10SM CLR 17/10 A3007 RMK AO2 SLP164 T01670100 403280161

More Conditions Fewer Conditions

Pressure 30.02 in
Visibility 10.0 miles
Clouds Clear
Dew Point 54 °F
Humidity 76%
Rainfall 0.00 in
Snow Depth Not available.
UV 0.0 out of 12
Pollen 5.20 out of 12
Air Quality Not available.
Flu Activity Not available.
METAR KMHS 060756Z AUTO 00000KT 10SM CLR 17/10 A3007 RMK AO2 SLP164 T01670100 403280161

More Conditions Fewer Conditions

10-Day Weather Forecast

×

Almanac

Astronomy

Jul. 06, 2015 Rise Set
Actual Time
Civil Twilight
Nautical Twilight
Astronomical Twilight
Moon
Length of Visible Light
Length of Day
Tomorrow will be .
, % of the Moon is Illuminated

Today's Extremes

State Highs State Lows

Community

WunderPhotos

Upload Photos

1,835,507 photos uploaded!

WunderBlogs® & News

Nearby

Air Quality

  Air Quality AQ Index Pollutant
Not available.

Snow Depth

Station Depth Elevation

Earthquake Activity

City Distance Mag. Time & Date
Minimum magnitude displayed is 2.5.

Coastal Water Temperatures

Place Temperature

Stations

Nearby Weather Stations

Station Location Temp. Windchill Dew Point Humidity Wind Precip. Elev Updated Type